createdAt,value
2023-02-11T04:10:47.769Z,28.26
2023-02-11T04:11:49.899Z,28.68
2023-02-11T04:12:53.464Z,29.06
2023-02-11T04:13:55.977Z,29.23
2023-02-11T04:14:59.145Z,28.37
2023-02-11T04:16:01.446Z,28.18
2023-02-11T04:17:05.301Z,27.42
2023-02-11T04:18:07.626Z,28.01
2023-02-11T04:19:10.846Z,27.63
2023-02-11T04:20:13.559Z,26.72
2023-02-11T04:21:16.650Z,27.12
2023-02-11T04:22:18.789Z,23.78
2023-02-11T04:23:21.980Z,27.95
2023-02-11T04:24:24.147Z,27.74
2023-02-11T04:25:27.387Z,28.34
2023-02-11T04:26:31.000Z,29.08
2023-02-11T04:27:34.197Z,26.89
2023-02-11T04:28:36.470Z,25.51
2023-02-11T04:29:39.685Z,27.70
2023-02-11T04:30:41.897Z,26.59
2023-02-11T04:31:45.423Z,28.36
2023-02-11T04:32:47.626Z,26.92
2023-02-11T04:33:50.726Z,24.74
2023-02-11T04:34:54.314Z,27.10
2023-02-11T04:35:57.473Z,25.16
2023-02-11T04:37:00.613Z,27.52
2023-02-11T04:38:02.839Z,26.52
2023-02-11T04:39:06.461Z,27.50
2023-02-11T04:40:09.787Z,25.62
2023-02-11T04:41:13.001Z,26.32
2023-02-11T04:42:16.418Z,26.56
2023-02-11T04:43:19.618Z,27.81
2023-02-11T04:44:21.750Z,24.85
2023-02-11T04:45:24.889Z,27.16
2023-02-11T04:46:29.918Z,27.91
2023-02-11T04:47:33.080Z,28.69
2023-02-11T04:48:35.527Z,27.71
2023-02-11T04:49:38.700Z,26.76
2023-02-11T04:50:41.989Z,26.99
2023-02-11T04:51:48.270Z,23.97
2023-02-11T04:52:51.504Z,27.73
2023-02-11T04:53:54.794Z,27.73
2023-02-11T04:54:56.958Z,25.14
2023-02-11T04:56:00.189Z,26.34
2023-02-11T04:57:02.652Z,27.63
2023-02-11T04:58:07.100Z,27.03
2023-02-11T04:59:09.175Z,25.80
2023-02-11T05:00:13.286Z,26.43
2023-02-11T05:01:16.206Z,27.16
2023-02-11T05:02:19.399Z,29.15
2023-02-11T05:03:21.904Z,25.27
2023-02-11T05:04:25.481Z,25.81
2023-02-11T05:05:27.689Z,27.68
2023-02-11T05:06:30.826Z,27.66
2023-02-11T05:07:33.651Z,27.09
2023-02-11T05:08:36.826Z,25.25
2023-02-11T05:09:39.159Z,25.49
2023-02-11T05:10:46.650Z,25.90
2023-02-11T05:11:48.945Z,23.95
2023-02-11T05:12:54.657Z,27.12
2023-02-11T05:13:59.135Z,25.01
2023-02-11T05:15:02.318Z,26.04
2023-02-11T05:16:05.089Z,25.54
2023-02-11T05:17:08.413Z,27.18
2023-02-11T05:18:10.571Z,28.64
2023-02-11T05:19:13.769Z,26.96
2023-02-11T05:20:16.005Z,26.23
2023-02-11T05:21:20.611Z,23.81
2023-02-11T05:22:22.699Z,24.46
2023-02-11T05:23:25.881Z,25.72
2023-02-11T05:24:28.071Z,25.41
2023-02-11T05:25:31.374Z,25.56
2023-02-11T05:26:33.518Z,23.43
2023-02-11T05:27:36.712Z,26.52
2023-02-11T05:28:39.776Z,26.55
2023-02-11T05:29:44.296Z,26.51
2023-02-11T05:30:46.475Z,26.95
2023-02-11T05:31:50.355Z,28.00
2023-02-11T05:32:52.496Z,25.02
2023-02-11T05:33:55.665Z,27.31
2023-02-11T05:34:57.812Z,26.22
2023-02-11T05:36:01.901Z,26.24
2023-02-11T05:37:04.175Z,26.49
2023-02-11T05:38:07.316Z,27.40
2023-02-11T05:39:09.508Z,27.68
2023-02-11T05:40:13.274Z,27.56
2023-02-11T05:41:15.445Z,29.15
2023-02-11T05:42:18.673Z,27.08
2023-02-11T05:43:20.918Z,27.19
2023-02-11T05:44:24.180Z,26.40
2023-02-11T05:45:27.955Z,28.38
2023-02-11T05:46:31.204Z,27.52
2023-02-11T05:47:33.888Z,27.57
2023-02-11T05:48:37.007Z,26.00
2023-02-11T05:49:39.194Z,24.89
2023-02-11T05:50:42.758Z,28.44
2023-02-11T05:51:44.974Z,28.39
2023-02-11T05:52:48.159Z,28.95
2023-02-11T05:53:51.047Z,27.43
2023-02-11T05:54:54.122Z,25.46
2023-02-11T05:55:56.345Z,26.04
2023-02-11T05:56:59.506Z,27.40
2023-02-11T05:58:02.102Z,27.86
2023-02-11T05:59:05.229Z,28.02
2023-02-11T06:00:08.581Z,28.53
2023-02-11T06:01:13.086Z,27.47
2023-02-11T06:02:15.565Z,26.82
2023-02-11T06:03:18.702Z,28.49
2023-02-11T06:04:20.917Z,26.94
2023-02-11T06:05:24.100Z,25.76
2023-02-11T06:06:26.693Z,25.47
2023-02-11T06:07:29.838Z,25.47
2023-02-11T06:08:31.968Z,28.91
2023-02-11T06:09:35.273Z,27.78
2023-02-11T06:10:37.691Z,27.24
2023-02-11T06:11:40.967Z,26.39
2023-02-11T06:12:43.222Z,27.45
2023-02-11T06:13:46.315Z,28.17
2023-02-11T06:14:48.438Z,25.28
2023-02-11T06:15:58.394Z,26.42
2023-02-11T06:17:02.393Z,27.90
2023-02-11T06:18:05.971Z,27.85
2023-02-11T06:19:08.162Z,28.74
2023-02-11T06:20:12.507Z,25.07
2023-02-11T06:21:14.744Z,25.56
2023-02-11T06:22:18.050Z,24.00
2023-02-11T06:23:20.290Z,25.39
2023-02-11T06:24:44.345Z,26.21
2023-02-11T06:25:46.666Z,25.38
2023-02-11T06:26:50.095Z,26.84
2023-02-11T06:27:52.198Z,26.63
2023-02-11T06:28:55.333Z,26.72
2023-02-11T06:29:57.579Z,27.26
2023-02-11T06:31:06.742Z,27.11
2023-02-11T06:32:24.591Z,25.93
2023-02-11T06:33:33.767Z,25.07
2023-02-11T06:34:36.175Z,27.14
2023-02-11T06:35:39.887Z,28.40
2023-02-11T06:36:42.861Z,27.06
2023-02-11T06:37:46.845Z,28.47
2023-02-11T06:38:49.860Z,29.12
2023-02-11T06:39:53.074Z,26.43
2023-02-11T06:40:55.412Z,27.40
2023-02-11T06:41:58.705Z,25.62
2023-02-11T06:43:00.879Z,27.53
2023-02-11T06:44:04.084Z,28.56
2023-02-11T06:45:09.028Z,26.62
2023-02-11T06:46:12.260Z,29.90
2023-02-11T06:47:15.781Z,23.42
2023-02-11T06:48:18.915Z,27.12
2023-02-11T06:49:22.089Z,27.13
2023-02-11T06:50:24.442Z,25.88
2023-02-11T06:51:28.302Z,28.29
2023-02-11T06:52:30.417Z,25.03
2023-02-11T06:53:36.462Z,29.47
2023-02-11T06:54:38.808Z,24.25
2023-02-11T06:55:41.995Z,29.93
2023-02-11T06:56:44.178Z,30.92
2023-02-11T06:57:47.328Z,26.75
2023-02-11T06:58:54.650Z,24.43
2023-02-11T06:59:57.867Z,28.51
2023-02-11T07:01:00.631Z,20.21
2023-02-11T07:02:03.815Z,25.15
2023-02-11T07:03:07.306Z,26.56
2023-02-11T07:04:10.570Z,26.98
2023-02-11T07:05:12.729Z,30.45
2023-02-11T07:06:18.301Z,26.48
2023-02-11T07:07:20.386Z,26.46
2023-02-11T07:08:23.477Z,22.84
2023-02-11T07:09:26.003Z,19.39
2023-02-11T07:10:29.174Z,19.99
2023-02-11T07:11:32.053Z,22.79
2023-02-11T07:12:35.240Z,20.56
2023-02-11T07:13:37.523Z,23.45
2023-02-11T07:14:41.465Z,24.03
2023-02-11T07:15:46.084Z,25.24
2023-02-11T07:16:49.247Z,27.37
2023-02-11T07:17:51.415Z,22.96
2023-02-11T07:18:55.884Z,27.47
2023-02-11T07:19:58.145Z,28.61
2023-02-11T07:21:04.802Z,29.33
2023-02-11T07:22:07.017Z,29.19
2023-02-11T07:23:10.449Z,25.38
2023-02-11T07:24:14.608Z,26.24
2023-02-11T07:25:16.958Z,26.61
2023-02-11T07:26:23.228Z,28.05
2023-02-11T07:27:25.631Z,31.13
2023-02-11T07:28:28.832Z,31.14
2023-02-11T07:29:31.117Z,29.45
2023-02-11T07:30:34.554Z,28.68
2023-02-11T07:31:37.014Z,29.49
2023-02-11T07:32:40.335Z,30.73
2023-02-11T07:33:49.875Z,30.96
2023-02-11T07:34:57.212Z,29.46
2023-02-11T07:36:01.031Z,27.16
2023-02-11T07:37:04.277Z,30.41
2023-02-11T07:38:06.506Z,29.33
2023-02-11T07:39:09.633Z,30.69
2023-02-11T07:40:13.357Z,29.59
2023-02-11T07:41:30.411Z,27.88
2023-02-11T07:42:33.756Z,28.71
2023-02-11T07:43:40.676Z,31.11
2023-02-11T07:44:42.957Z,27.55
2023-02-11T07:45:46.051Z,30.25
2023-02-11T07:46:49.272Z,29.78
2023-02-11T07:47:52.587Z,29.81
2023-02-11T07:48:55.853Z,28.36
2023-02-11T07:50:00.462Z,29.47
2023-02-11T07:51:08.048Z,28.76
2023-02-11T07:52:13.926Z,26.91
2023-02-11T07:53:16.150Z,24.33
2023-02-11T07:54:19.745Z,28.21
2023-02-11T07:55:21.936Z,28.57
2023-02-11T07:56:26.003Z,27.06
2023-02-11T07:57:29.218Z,24.59
2023-02-11T07:58:34.136Z,28.68
2023-02-11T07:59:37.292Z,28.94
2023-02-11T08:00:40.597Z,28.88
2023-02-11T08:01:42.856Z,28.83
2023-02-11T08:02:46.079Z,28.67
2023-02-11T08:03:48.791Z,28.98
2023-02-11T08:04:52.118Z,29.41
2023-02-11T08:05:55.903Z,29.33
2023-02-11T08:06:59.393Z,28.75
2023-02-11T08:08:01.582Z,29.86
2023-02-11T08:09:08.132Z,29.42
2023-02-11T08:10:15.938Z,27.90
2023-02-11T08:11:20.254Z,27.98
2023-02-11T08:12:23.723Z,27.92
2023-02-11T08:13:26.985Z,28.33
2023-02-11T08:14:30.440Z,30.47
2023-02-11T08:15:32.734Z,27.35
2023-02-11T08:16:38.794Z,27.11
2023-02-11T08:17:42.187Z,27.94
2023-02-11T08:18:44.408Z,27.77
2023-02-11T08:19:47.547Z,27.43
2023-02-11T08:20:50.834Z,29.10
2023-02-11T08:21:57.887Z,27.93
2023-02-11T08:23:00.012Z,31.16
2023-02-11T08:24:04.044Z,30.16
2023-02-11T08:25:06.880Z,28.68
2023-02-11T08:26:12.842Z,25.84
2023-02-11T08:27:15.006Z,28.40
2023-02-11T08:28:18.190Z,30.78
2023-02-11T08:29:20.353Z,30.67
2023-02-11T08:30:26.296Z,29.03
2023-02-11T08:31:33.265Z,27.60
2023-02-11T08:32:36.961Z,26.48
2023-02-11T08:33:40.909Z,26.41
2023-02-11T08:34:44.085Z,29.09
2023-02-11T08:35:46.277Z,29.45
2023-02-11T08:36:49.968Z,29.99
2023-02-11T08:37:53.692Z,28.26
2023-02-11T08:39:16.157Z,28.03
2023-02-11T08:40:21.864Z,30.05
2023-02-11T08:41:24.075Z,28.05
2023-02-11T08:42:27.402Z,30.08
2023-02-11T08:43:29.625Z,28.96
2023-02-11T08:44:32.812Z,29.92
2023-02-11T08:45:35.017Z,29.41
2023-02-11T08:46:38.520Z,28.57
2023-02-11T08:47:40.749Z,28.75
2023-02-11T08:48:44.625Z,28.30
2023-02-11T08:49:46.796Z,31.28
2023-02-11T08:50:50.197Z,31.75
2023-02-11T08:51:55.005Z,33.06
2023-02-11T08:52:58.835Z,32.28
2023-02-11T08:54:03.176Z,31.57
2023-02-11T08:55:07.119Z,31.11
2023-02-11T08:56:13.323Z,32.04
2023-02-11T08:57:16.733Z,30.55
2023-02-11T08:58:19.341Z,31.17
2023-02-11T08:59:22.545Z,29.21
2023-02-11T09:00:24.950Z,30.65
2023-02-11T09:01:31.124Z,31.02
2023-02-11T09:02:33.566Z,29.50
2023-02-11T09:03:36.775Z,31.90
2023-02-11T09:04:39.180Z,29.93
2023-02-11T09:05:43.183Z,30.66
2023-02-11T09:06:45.633Z,29.83
2023-02-11T09:07:48.917Z,29.49
2023-02-11T09:08:55.132Z,30.72
2023-02-11T09:09:58.366Z,29.97
2023-02-11T09:11:00.587Z,30.85
2023-02-11T09:12:03.857Z,29.71
2023-02-11T09:13:06.744Z,30.35
2023-02-11T09:14:15.123Z,28.84
2023-02-11T09:15:17.308Z,27.78
2023-02-11T09:16:22.598Z,28.30
2023-02-11T09:17:25.891Z,29.80
2023-02-11T09:18:31.273Z,28.26
2023-02-11T09:19:34.503Z,29.08
2023-02-11T09:20:36.653Z,29.75
2023-02-11T09:21:39.934Z,30.33
2023-02-11T09:22:43.098Z,29.93
2023-02-11T09:23:47.890Z,28.95
2023-02-11T09:24:52.641Z,26.48
2023-02-11T09:25:54.766Z,29.52
2023-02-11T09:26:57.950Z,31.24
2023-02-11T09:28:00.874Z,30.47
2023-02-11T09:29:06.165Z,28.15
2023-02-11T09:30:09.318Z,27.56
2023-02-11T09:31:15.222Z,27.94
2023-02-11T09:32:18.467Z,28.34
2023-02-11T09:33:20.730Z,29.22
2023-02-11T09:34:23.883Z,29.14
2023-02-11T09:35:26.074Z,28.71
2023-02-11T09:36:31.240Z,27.29
2023-02-11T09:37:37.174Z,26.43
2023-02-11T09:38:40.493Z,27.08
2023-02-11T09:39:45.296Z,28.63
2023-02-11T09:40:49.119Z,30.36
2023-02-11T09:42:34.894Z,31.76
2023-02-11T09:43:45.588Z,28.05
2023-02-11T09:44:48.592Z,27.48
2023-02-11T09:45:55.473Z,28.82
2023-02-11T09:47:01.211Z,28.84
2023-02-11T09:48:13.840Z,27.15
2023-02-11T09:49:22.731Z,28.89
2023-02-11T09:50:31.285Z,27.70
2023-02-11T09:51:41.131Z,27.13
2023-02-11T09:52:53.153Z,28.36
2023-02-11T09:54:05.519Z,28.28
2023-02-11T09:55:19.880Z,28.92
2023-02-11T09:56:26.549Z,28.52
2023-02-11T09:57:33.849Z,28.72
2023-02-11T09:58:40.960Z,27.50
2023-02-11T09:59:43.489Z,27.44
2023-02-11T10:00:53.319Z,28.61
2023-02-11T10:02:02.367Z,29.25
2023-02-11T10:03:37.839Z,28.05
2023-02-11T10:05:25.930Z,28.69
2023-02-11T10:06:39.292Z,28.65
2023-02-11T10:07:53.473Z,29.18
2023-02-11T10:09:09.996Z,30.63
2023-02-11T10:10:28.311Z,27.83
2023-02-11T10:11:47.216Z,30.05
2023-02-11T10:13:14.283Z,30.88
2023-02-11T10:14:44.949Z,30.81
2023-02-11T10:16:07.439Z,31.45
2023-02-11T10:17:23.506Z,30.87
2023-02-11T10:18:59.590Z,30.38
2023-02-11T10:20:44.810Z,30.71
2023-02-11T10:21:59.397Z,29.62
2023-02-11T10:23:11.988Z,32.34
2023-02-11T10:24:17.818Z,30.10
2023-02-11T10:25:25.347Z,29.70
2023-02-11T10:26:33.315Z,30.16
2023-02-11T10:27:40.453Z,31.13
2023-02-11T10:28:47.005Z,30.67
2023-02-11T10:29:55.066Z,29.60
2023-02-11T10:31:01.825Z,30.40
2023-02-11T13:22:44.016Z,24.49
2023-02-11T13:24:18.930Z,24.49
2023-02-11T13:25:42.528Z,24.64
2023-02-11T13:27:08.759Z,24.14
2023-02-11T13:28:49.531Z,22.54
2023-02-11T13:30:30.847Z,24.04
2023-02-11T13:31:36.073Z,22.84
2023-02-11T13:33:19.105Z,25.47
2023-02-11T13:36:27.703Z,22.65
2023-02-11T13:37:37.155Z,24.84
2023-02-11T13:38:46.614Z,24.30
2023-02-11T13:40:00.931Z,25.42
2023-02-11T13:41:08.226Z,24.62
2023-02-11T13:42:20.748Z,23.33
2023-02-11T13:43:29.293Z,24.15
2023-02-11T13:44:38.334Z,23.57
2023-02-11T13:45:46.904Z,23.14
2023-02-11T13:47:11.681Z,22.65
2023-02-11T13:48:26.588Z,23.76
2023-02-11T13:49:46.258Z,22.03
2023-02-11T13:50:59.410Z,23.09
2023-02-11T13:52:09.681Z,23.32
2023-02-11T13:53:21.686Z,21.58
2023-02-11T13:54:37.470Z,20.77
2023-02-11T13:55:48.149Z,24.96
2023-02-11T13:57:27.167Z,22.56
2023-02-11T13:58:51.248Z,21.95
2023-02-11T14:00:00.091Z,19.98
2023-02-11T14:01:12.230Z,21.66
2023-02-11T14:02:46.979Z,21.39
2023-02-11T14:04:26.251Z,23.53
2023-02-11T14:05:49.650Z,21.46
2023-02-11T14:07:43.422Z,23.60
2023-02-11T14:09:40.392Z,23.01
2023-02-11T14:11:24.950Z,20.17
2023-02-11T14:12:39.560Z,22.89
2023-02-11T14:14:27.166Z,22.59
2023-02-11T14:15:40.987Z,22.83
2023-02-11T14:17:32.836Z,23.41
2023-02-11T14:19:16.299Z,21.46
2023-02-11T14:20:56.714Z,22.33
2023-02-11T14:22:28.816Z,21.32
2023-02-11T14:25:44.507Z,22.22
2023-02-11T14:27:35.185Z,23.06
2023-02-11T14:29:04.220Z,23.09
2023-02-11T14:30:30.289Z,21.45
2023-02-11T14:31:46.683Z,24.79
2023-02-11T14:33:54.640Z,23.71
2023-02-11T14:35:25.388Z,27.46
2023-02-11T14:36:56.156Z,23.66
2023-02-11T14:38:37.870Z,21.50
2023-02-11T14:41:00.403Z,23.00
2023-02-11T14:41:59.014Z,20.78
2023-02-11T14:43:58.976Z,23.40
2023-02-11T14:45:27.524Z,21.32
2023-02-11T14:46:41.785Z,23.66
2023-02-11T14:48:14.052Z,22.81
2023-02-11T14:49:47.935Z,22.39
2023-02-11T14:51:10.551Z,22.16
2023-02-11T14:52:31.744Z,21.69
2023-02-11T14:54:21.448Z,23.67
2023-02-11T14:55:50.620Z,20.73
2023-02-11T14:58:06.090Z,19.70
2023-02-11T14:59:26.831Z,22.03
2023-02-11T15:00:36.526Z,20.56
2023-02-11T15:01:49.633Z,21.80
2023-02-11T15:03:02.694Z,21.76
2023-02-11T15:04:32.065Z,21.00
2023-02-11T15:05:42.018Z,21.70
2023-02-11T15:07:06.360Z,22.29
2023-02-11T15:08:18.954Z,21.53
2023-02-11T15:09:28.189Z,23.44
2023-02-11T15:10:38.557Z,20.68
2023-02-11T15:11:58.208Z,21.46
2023-02-11T15:13:07.003Z,21.74
2023-02-11T15:14:26.306Z,22.97
2023-02-11T15:15:42.105Z,21.92
2023-02-11T15:16:56.086Z,21.64
2023-02-11T15:18:17.389Z,22.99
2023-02-11T15:19:34.231Z,22.65
2023-02-11T15:20:47.346Z,20.79
2023-02-11T15:21:56.597Z,23.09
2023-02-11T15:23:03.934Z,23.94
2023-02-11T15:24:27.339Z,19.71
2023-02-11T15:25:38.870Z,20.48
2023-02-11T15:27:14.087Z,21.01
2023-02-11T15:28:31.410Z,20.17
2023-02-11T15:30:02.278Z,22.42
2023-02-11T15:31:26.986Z,20.28
2023-02-11T15:33:35.590Z,19.15
2023-02-11T15:35:12.076Z,19.01
2023-02-11T15:36:40.042Z,20.98
2023-02-11T15:39:58.940Z,20.36
2023-02-11T15:41:16.818Z,16.39
2023-02-11T15:42:24.402Z,18.16
2023-02-11T15:43:47.726Z,17.73
2023-02-11T15:45:14.124Z,17.85
2023-02-11T15:46:37.324Z,17.05
2023-02-11T15:48:01.034Z,18.50
2023-02-11T15:49:07.804Z,20.68
2023-02-11T15:50:34.281Z,19.20
2023-02-11T15:52:04.665Z,19.27
2023-02-11T15:53:31.000Z,19.17
2023-02-11T15:55:40.253Z,18.34
2023-02-11T15:56:53.956Z,17.17
2023-02-11T15:58:13.399Z,18.25
2023-02-11T15:59:46.110Z,17.52
2023-02-11T16:01:30.471Z,15.64
2023-02-11T16:02:54.618Z,15.27
2023-02-11T16:04:24.097Z,14.88
2023-02-11T16:06:01.149Z,17.59
2023-02-11T16:07:11.791Z,17.13
2023-02-11T16:08:29.249Z,16.91
2023-02-11T16:10:02.304Z,16.93
2023-02-11T16:11:43.982Z,18.04
2023-02-11T16:13:36.535Z,16.59
2023-02-11T16:14:56.896Z,16.85
2023-02-11T16:16:28.955Z,17.25
2023-02-11T16:17:36.912Z,15.54
2023-02-11T16:19:29.043Z,17.77
2023-02-11T16:20:50.894Z,15.29
2023-02-11T16:22:14.009Z,15.26
2023-02-11T16:23:49.408Z,18.95
2023-02-11T16:25:03.967Z,18.55
2023-02-11T16:26:26.071Z,16.24
2023-02-11T16:27:46.446Z,14.45
2023-02-11T16:28:57.658Z,15.75
2023-02-11T16:30:34.214Z,18.16
2023-02-11T16:32:17.932Z,17.03
2023-02-11T16:33:25.195Z,17.02
2023-02-11T16:34:53.645Z,16.68
2023-02-11T16:36:11.031Z,16.67
2023-02-11T16:37:50.036Z,20.38
2023-02-11T16:39:05.244Z,20.50
2023-02-11T16:41:47.954Z,18.02
2023-02-11T16:45:22.421Z,20.06
2023-02-11T16:47:11.980Z,16.68
2023-02-11T16:48:31.504Z,16.03
2023-02-11T16:50:11.502Z,17.73
2023-02-11T16:51:20.209Z,18.40
2023-02-11T16:52:47.070Z,18.52
2023-02-11T16:54:01.022Z,16.17
2023-02-11T16:55:40.355Z,16.54
2023-02-11T16:57:11.270Z,16.02
2023-02-11T16:58:56.423Z,15.95
2023-02-11T17:00:10.871Z,15.05
2023-02-11T17:01:42.677Z,12.15
2023-02-11T17:03:18.441Z,15.36
2023-02-11T17:04:48.814Z,16.88
2023-02-11T17:06:27.188Z,15.20
2023-02-11T17:08:09.152Z,13.73
2023-02-11T17:09:33.311Z,19.32
2023-02-11T17:11:43.666Z,13.93
2023-02-11T17:13:10.644Z,17.10
2023-02-11T17:15:56.504Z,9.58
2023-02-11T17:16:58.744Z,8.13
2023-02-11T17:18:01.902Z,7.82
2023-02-11T17:19:06.543Z,10.40
2023-02-11T17:20:11.730Z,11.29
2023-02-11T17:21:17.223Z,12.49
2023-02-11T17:22:19.417Z,13.73
2023-02-11T17:23:22.825Z,9.85
2023-02-11T17:24:26.055Z,7.66
2023-02-11T17:25:28.300Z,6.30
2023-02-11T17:26:32.712Z,9.98
2023-02-11T17:27:34.982Z,7.63
2023-02-11T17:28:38.267Z,7.51
2023-02-11T17:29:41.473Z,16.86
2023-02-11T17:30:44.141Z,14.68
2023-02-11T17:31:47.469Z,9.85
2023-02-11T17:32:50.853Z,8.82
2023-02-11T17:33:53.041Z,7.20
2023-02-11T17:34:56.327Z,8.22
2023-02-11T17:36:08.796Z,15.38
2023-02-11T17:37:13.396Z,12.56
2023-02-11T17:38:15.914Z,11.99
2023-02-11T17:39:21.098Z,11.11
2023-02-11T17:40:23.599Z,11.85
2023-02-11T17:41:26.985Z,10.80
2023-02-11T17:42:31.258Z,8.67
2023-02-11T17:43:34.453Z,6.91
2023-02-11T17:44:37.638Z,10.09
2023-02-11T17:45:42.172Z,9.41
2023-02-11T17:46:45.735Z,10.91
2023-02-11T17:47:49.280Z,10.70
2023-02-11T17:48:53.279Z,10.73
2023-02-11T17:49:56.467Z,11.21
2023-02-11T17:50:58.615Z,11.66
2023-02-11T17:52:01.813Z,11.05
2023-02-11T17:53:06.335Z,14.37
2023-02-11T17:54:11.831Z,11.04
2023-02-11T17:55:15.039Z,12.17
2023-02-11T17:56:18.266Z,13.73
2023-02-11T17:57:20.467Z,12.09
2023-02-11T17:58:23.638Z,16.22
2023-02-11T17:59:31.605Z,17.36
2023-02-11T18:00:35.345Z,14.91
2023-02-11T18:01:40.080Z,15.36
2023-02-11T18:02:43.501Z,18.23
2023-02-11T18:03:45.719Z,16.03
2023-02-11T18:04:48.978Z,13.60
2023-02-11T18:05:51.410Z,12.52
2023-02-11T18:06:54.915Z,14.93
2023-02-11T18:07:58.042Z,18.17
2023-02-11T18:09:04.360Z,17.29
2023-02-11T18:10:09.272Z,12.08
2023-02-11T18:11:12.995Z,17.69
2023-02-11T18:12:17.890Z,13.48
2023-02-11T18:13:21.127Z,14.26
2023-02-11T18:14:23.568Z,11.40
2023-02-11T18:15:27.078Z,14.99
2023-02-11T18:16:30.513Z,19.93
2023-02-11T18:17:33.722Z,16.03
2023-02-11T18:18:36.274Z,12.53
2023-02-11T18:19:39.416Z,18.86
2023-02-11T18:20:43.223Z,21.81
2023-02-11T18:21:48.764Z,18.38
2023-02-11T18:22:51.871Z,16.55
2023-02-11T18:23:54.073Z,13.30
2023-02-11T18:24:58.518Z,13.49
2023-02-11T18:26:00.728Z,17.88
2023-02-11T18:27:03.885Z,17.55
2023-02-11T18:28:06.136Z,14.91
2023-02-11T18:29:09.586Z,13.39
2023-02-11T18:30:16.545Z,13.06
2023-02-11T18:31:22.337Z,15.58
2023-02-11T18:32:28.344Z,16.49
2023-02-11T18:33:30.713Z,14.38
2023-02-11T18:34:33.871Z,14.71
2023-02-11T18:35:37.888Z,19.93
2023-02-11T18:36:41.028Z,18.24
2023-02-11T18:37:44.348Z,13.81
2023-02-11T18:38:46.857Z,10.66
2023-02-11T18:39:50.058Z,13.50
2023-02-11T18:40:56.949Z,14.50
2023-02-11T18:42:00.290Z,14.93
2023-02-11T18:43:02.493Z,12.15
2023-02-11T18:44:06.059Z,13.86
2023-02-11T18:45:12.627Z,17.96
2023-02-11T18:46:16.778Z,20.03
2023-02-11T18:47:19.926Z,17.82
2023-02-11T18:48:22.041Z,19.88
2023-02-11T18:49:25.339Z,22.55
2023-02-11T18:50:29.415Z,17.20
2023-02-11T18:51:32.345Z,18.01
2023-02-11T18:52:38.444Z,18.07
2023-02-11T18:53:42.951Z,17.53
2023-02-11T18:54:46.340Z,17.92
2023-02-11T18:55:48.874Z,18.58
2023-02-11T18:56:53.485Z,19.44
2023-02-11T18:57:57.760Z,26.72
2023-02-11T18:59:01.716Z,27.59
2023-02-11T19:00:04.541Z,18.92
2023-02-11T19:01:13.363Z,19.06
2023-02-11T19:02:15.632Z,22.34
2023-02-11T19:03:18.918Z,16.83
2023-02-11T19:04:23.251Z,16.38
2023-02-11T19:05:28.666Z,14.11
2023-02-11T19:06:34.843Z,14.05
2023-02-11T19:07:38.398Z,14.53
2023-02-11T19:08:40.620Z,15.75
2023-02-11T19:09:44.406Z,14.66
2023-02-11T19:10:48.072Z,15.24
2023-02-11T19:11:51.448Z,14.02
2023-02-11T19:12:58.912Z,13.40
2023-02-11T19:14:09.965Z,12.37
2023-02-11T19:15:14.162Z,13.38
2023-02-11T19:16:19.779Z,11.70
2023-02-11T19:17:23.111Z,11.94
2023-02-11T19:18:27.410Z,13.90
2023-02-11T19:19:32.634Z,16.41
2023-02-11T19:20:34.822Z,14.28
2023-02-11T19:21:38.395Z,13.74
2023-02-11T19:22:41.589Z,13.79
2023-02-11T19:23:43.864Z,14.97
2023-02-11T19:24:47.395Z,15.85
2023-02-11T19:25:49.717Z,13.24
2023-02-11T19:26:56.840Z,11.71
2023-02-11T19:28:01.470Z,12.96
2023-02-11T19:29:04.766Z,9.33
2023-02-11T19:30:09.329Z,12.36
2023-02-11T19:31:11.627Z,15.07
2023-02-11T19:32:15.778Z,11.84
2023-02-11T19:33:18.963Z,11.89
2023-02-11T19:34:23.304Z,13.70
2023-02-11T19:35:26.010Z,14.42
2023-02-11T19:36:31.047Z,12.57
2023-02-11T19:37:34.185Z,11.64
2023-02-11T19:38:36.784Z,14.63
2023-02-11T19:39:40.306Z,12.81
2023-02-11T19:40:42.487Z,13.34
2023-02-11T19:41:46.182Z,13.56
2023-02-11T19:42:48.492Z,10.33
2023-02-11T19:43:53.733Z,17.74
2023-02-11T19:44:57.181Z,18.77
2023-02-11T19:46:01.590Z,17.57
2023-02-11T19:47:05.133Z,15.73
2023-02-11T19:48:07.342Z,15.76
2023-02-11T19:49:11.053Z,14.26
2023-02-11T19:50:13.416Z,12.48
2023-02-11T19:51:17.933Z,12.23
2023-02-11T19:52:21.097Z,10.57
2023-02-11T19:53:23.623Z,8.77
2023-02-11T19:54:28.676Z,12.02
2023-02-11T19:55:30.863Z,11.58
2023-02-11T19:56:35.042Z,10.78
2023-02-11T19:57:37.195Z,9.80
2023-02-11T19:58:40.957Z,6.62
2023-02-11T19:59:44.820Z,6.50
2023-02-11T20:00:47.989Z,6.37
2023-02-11T20:01:53.130Z,9.82
2023-02-11T20:02:56.580Z,8.27
2023-02-11T20:03:58.740Z,6.91
2023-02-11T20:05:02.115Z,13.27
2023-02-11T20:06:10.109Z,12.75
2023-02-11T20:07:13.278Z,10.80
2023-02-11T20:08:17.169Z,10.79
2023-02-11T20:09:21.452Z,14.70
2023-02-11T20:10:25.234Z,16.11
2023-02-11T20:11:29.942Z,13.87
2023-02-11T20:12:33.187Z,16.20
2023-02-11T20:13:35.361Z,15.47
2023-02-11T20:14:38.554Z,12.96
2023-02-11T20:15:42.165Z,13.92
2023-02-11T20:16:49.617Z,16.47
2023-02-11T20:17:52.028Z,12.02
2023-02-11T20:18:56.597Z,10.89
2023-02-11T20:19:58.725Z,11.89
2023-02-11T20:21:07.644Z,11.92
2023-02-11T20:22:10.823Z,8.87
2023-02-11T20:23:13.948Z,8.93
2023-02-11T20:24:16.814Z,12.85
2023-02-11T20:25:20.041Z,15.43
2023-02-11T20:26:26.389Z,12.11
2023-02-11T20:27:29.583Z,11.26
2023-02-11T20:28:31.828Z,9.67
2023-02-11T20:29:35.375Z,12.68
2023-02-11T20:30:37.577Z,8.53
2023-02-11T20:31:43.068Z,11.61
2023-02-11T20:32:46.324Z,12.60
2023-02-11T20:33:49.102Z,13.71
2023-02-11T20:34:52.662Z,16.75
2023-02-11T20:35:59.994Z,16.93
2023-02-11T20:37:06.036Z,20.66
2023-02-11T20:38:08.219Z,16.24
2023-02-11T20:39:17.175Z,12.12
2023-02-11T20:40:20.487Z,11.85
2023-02-11T20:41:25.277Z,14.08
2023-02-11T20:42:28.949Z,12.47
2023-02-11T20:43:31.388Z,10.48
2023-02-11T20:44:36.723Z,7.51
2023-02-11T20:45:38.882Z,10.02
2023-02-11T20:46:50.048Z,15.14
2023-02-11T20:47:52.373Z,14.16
2023-02-11T20:48:57.436Z,13.58
2023-02-11T20:49:59.697Z,10.71
2023-02-11T20:51:07.273Z,12.91
2023-02-11T20:52:09.466Z,15.97
2023-02-11T20:53:12.695Z,16.73
2023-02-11T20:54:16.237Z,12.92
2023-02-11T20:55:19.344Z,12.71
2023-02-11T20:56:24.414Z,11.81
2023-02-11T20:57:28.309Z,11.26
2023-02-11T20:58:31.218Z,8.52
2023-02-11T20:59:34.439Z,8.90
2023-02-11T21:00:37.197Z,11.48
2023-02-11T21:01:44.994Z,13.46
2023-02-11T21:02:51.317Z,10.68
2023-02-11T21:03:56.637Z,11.50
2023-02-11T21:04:59.757Z,11.59
2023-02-11T21:06:02.568Z,12.56
2023-02-11T21:07:05.773Z,13.54
2023-02-11T21:08:07.851Z,10.36
2023-02-11T21:09:14.918Z,9.78
2023-02-11T21:10:18.030Z,7.46
2023-02-11T21:11:21.932Z,6.93
2023-02-11T21:12:25.174Z,8.99
2023-02-11T21:13:27.392Z,10.24
2023-02-11T21:14:31.159Z,11.56
2023-02-11T21:15:33.337Z,10.27
2023-02-11T21:16:36.518Z,10.32
2023-02-11T21:17:40.002Z,9.97
2023-02-11T21:18:43.419Z,9.89
2023-02-11T21:19:45.628Z,14.40
2023-02-11T21:20:48.825Z,12.54
2023-02-11T21:21:52.480Z,12.83
2023-02-11T21:22:54.581Z,13.49
2023-02-11T21:23:58.496Z,15.51
2023-02-11T21:25:01.132Z,14.07
2023-02-11T21:26:04.300Z,15.70
2023-02-11T21:27:07.601Z,12.98
2023-02-11T21:28:12.811Z,13.30
2023-02-11T21:29:16.004Z,11.23
2023-02-11T21:30:18.812Z,11.80
2023-02-11T21:31:26.193Z,9.57
2023-02-11T21:32:28.693Z,11.72
2023-02-11T21:34:06.614Z,11.11
2023-02-11T21:35:10.144Z,10.84
2023-02-11T21:36:12.316Z,10.55
2023-02-11T21:37:15.482Z,9.93
2023-02-11T21:38:17.710Z,8.85
2023-02-11T21:39:21.201Z,8.66
2023-02-11T21:40:27.417Z,13.13
2023-02-11T21:41:30.902Z,12.38
2023-02-11T21:42:33.090Z,11.72
2023-02-11T21:43:36.936Z,11.73
2023-02-11T21:44:39.053Z,11.53
2023-02-11T21:45:44.756Z,15.18
2023-02-11T21:46:46.998Z,12.03
2023-02-11T21:47:50.306Z,9.58
2023-02-11T21:48:53.872Z,15.97
2023-02-11T21:49:58.486Z,15.24
2023-02-11T21:51:05.737Z,12.74
2023-02-11T21:52:08.908Z,10.66
2023-02-11T21:53:12.089Z,11.52
2023-02-11T21:54:15.241Z,11.58
2023-02-11T21:55:18.531Z,14.99
2023-02-11T21:56:20.656Z,19.16
2023-02-11T21:57:23.886Z,16.95
2023-02-11T21:58:26.200Z,17.84
2023-02-11T21:59:29.521Z,19.50
2023-02-11T22:00:32.474Z,18.24
2023-02-11T22:01:36.820Z,16.96